createdAt,value
2023-03-31T00:04:18.733Z,10.70
2023-03-31T00:09:19.109Z,10.70
2023-03-31T00:14:19.999Z,10.69
2023-03-31T00:19:21.518Z,10.65
2023-03-31T00:24:22.525Z,10.62
2023-03-31T00:29:21.635Z,10.60
2023-03-31T00:34:23.268Z,10.57
2023-03-31T00:39:24.767Z,10.56
2023-03-31T00:44:30.635Z,10.56
2023-03-31T00:49:36.479Z,10.56
2023-03-31T00:54:37.852Z,10.57
2023-03-31T00:59:43.394Z,10.58
2023-03-31T01:04:54.999Z,10.57
2023-03-31T01:10:00.347Z,10.57
2023-03-31T01:15:01.825Z,10.59
2023-03-31T01:20:15.774Z,10.58
2023-03-31T01:25:54.792Z,10.57
2023-03-31T01:31:55.953Z,10.56
2023-03-31T01:38:01.981Z,10.51
2023-03-31T01:43:10.422Z,10.46
2023-03-31T01:48:18.270Z,10.45
2023-03-31T01:53:31.449Z,10.40
2023-03-31T01:58:39.289Z,10.34
2023-03-31T02:03:48.216Z,10.30
2023-03-31T02:08:54.058Z,10.27
2023-03-31T02:13:57.714Z,10.23
2023-03-31T02:19:03.981Z,10.20
2023-03-31T02:24:13.014Z,10.18
2023-03-31T02:29:12.778Z,10.18
2023-03-31T02:34:12.778Z,10.17
2023-03-31T02:39:17.894Z,10.15
2023-03-31T02:44:23.034Z,10.11
2023-03-31T02:49:26.560Z,10.07
2023-03-31T02:55:26.276Z,10.05
2023-03-31T03:00:37.599Z,10.01
2023-03-31T03:05:49.957Z,9.97
2023-03-31T03:11:29.062Z,9.94
2023-03-31T03:16:35.918Z,9.94
2023-03-31T03:21:36.484Z,9.93
2023-03-31T03:26:37.576Z,9.92
2023-03-31T03:31:36.751Z,9.92
2023-03-31T03:36:35.491Z,9.92
2023-03-31T03:41:34.822Z,9.90
2023-03-31T03:46:34.213Z,9.86
2023-03-31T03:51:32.924Z,9.81
2023-03-31T03:56:32.191Z,9.76
2023-03-31T04:01:31.873Z,9.75
2023-03-31T04:06:31.107Z,9.70
2023-03-31T04:11:31.145Z,9.68
2023-03-31T04:16:30.970Z,9.65
2023-03-31T04:21:35.925Z,9.61
2023-03-31T04:26:43.290Z,9.57
2023-03-31T04:31:44.618Z,9.54
2023-03-31T04:36:47.823Z,9.52
2023-03-31T04:41:49.009Z,9.48
2023-03-31T04:46:48.175Z,9.41
2023-03-31T04:51:48.644Z,9.33
2023-03-31T04:56:47.938Z,9.24
2023-03-31T05:01:47.275Z,9.17
2023-03-31T05:06:45.823Z,9.12
2023-03-31T05:11:46.705Z,9.12
2023-03-31T05:16:47.228Z,9.16
2023-03-31T05:21:47.308Z,9.22
2023-03-31T05:26:51.689Z,9.30
2023-03-31T05:31:53.480Z,9.38
2023-03-31T05:36:54.126Z,9.49
2023-03-31T05:41:53.178Z,9.60
2023-03-31T05:46:53.009Z,9.70
2023-03-31T05:51:53.712Z,9.80
2023-03-31T05:56:52.916Z,9.87
2023-03-31T06:01:52.549Z,9.94
2023-03-31T06:06:56.032Z,10.00
2023-03-31T06:11:58.552Z,10.05
2023-03-31T06:17:01.122Z,10.11
2023-03-31T06:22:01.971Z,10.16
2023-03-31T06:27:04.358Z,10.19
2023-03-31T06:32:05.259Z,10.23
2023-03-31T06:37:09.402Z,10.31
2023-03-31T06:42:09.316Z,10.44
2023-03-31T06:47:14.148Z,10.56
2023-03-31T06:52:13.469Z,10.64
2023-03-31T06:57:14.478Z,10.69
2023-03-31T07:02:15.594Z,10.75
2023-03-31T07:07:17.349Z,10.86
2023-03-31T07:12:17.483Z,11.00
2023-03-31T07:17:17.871Z,11.16
2023-03-31T07:22:18.246Z,11.32
2023-03-31T07:27:19.740Z,11.46
2023-03-31T07:32:20.442Z,11.54
2023-03-31T07:37:20.725Z,11.65
2023-03-31T07:42:21.384Z,11.76
2023-03-31T07:47:21.106Z,11.90
2023-03-31T07:52:31.266Z,12.00
2023-03-31T07:57:32.546Z,12.11
2023-03-31T08:02:33.156Z,12.23
2023-03-31T08:07:35.024Z,12.38
2023-03-31T08:12:37.069Z,12.51
2023-03-31T08:17:38.046Z,12.60
2023-03-31T08:22:39.405Z,12.68
2023-03-31T08:27:45.372Z,12.75
2023-03-31T08:32:44.897Z,12.78
2023-03-31T08:37:48.227Z,12.95
2023-03-31T08:42:55.414Z,13.02
2023-03-31T08:48:01.121Z,12.89
2023-03-31T08:53:09.315Z,12.83
2023-03-31T08:58:30.314Z,12.80
2023-03-31T09:03:46.730Z,12.84
2023-03-31T09:08:50.878Z,12.95
2023-03-31T09:14:28.058Z,13.06
2023-03-31T09:19:46.008Z,13.16
2023-03-31T09:24:58.624Z,13.22
2023-03-31T09:31:10.526Z,13.32
2023-03-31T09:36:22.582Z,13.50
2023-03-31T09:41:24.293Z,13.71
2023-03-31T09:46:36.221Z,13.92
2023-03-31T09:51:43.699Z,14.03
2023-03-31T09:56:56.738Z,14.09
2023-03-31T10:02:03.810Z,14.22
2023-03-31T10:07:08.438Z,14.35
2023-03-31T10:12:18.495Z,14.51
2023-03-31T10:17:23.305Z,14.48
2023-03-31T10:22:35.924Z,14.49
2023-03-31T10:27:37.545Z,14.62
2023-03-31T10:32:46.730Z,14.79
2023-03-31T10:38:00.532Z,14.97
2023-03-31T10:43:19.544Z,15.10
2023-03-31T10:48:33.654Z,15.29
2023-03-31T10:53:41.196Z,15.44
2023-03-31T10:59:05.679Z,15.50
2023-03-31T11:04:38.372Z,15.50
2023-03-31T11:09:57.855Z,15.55
2023-03-31T11:15:21.212Z,15.57
2023-03-31T11:20:33.454Z,15.68
2023-03-31T11:25:47.009Z,15.83
2023-03-31T11:30:59.336Z,15.87
2023-03-31T11:36:19.123Z,15.87
2023-03-31T11:41:24.130Z,15.98
2023-03-31T11:46:30.623Z,16.05
2023-03-31T11:51:37.397Z,16.23
2023-03-31T11:56:42.368Z,16.26
2023-03-31T12:01:50.743Z,16.25
2023-03-31T12:07:02.387Z,16.22
2023-03-31T12:12:11.958Z,16.44
2023-03-31T12:17:18.717Z,16.80
2023-03-31T12:22:25.821Z,17.22
2023-03-31T12:27:33.744Z,17.43
2023-03-31T12:32:39.575Z,17.32
2023-03-31T12:38:33.397Z,17.38
2023-03-31T12:44:14.152Z,17.46
2023-03-31T12:49:32.911Z,17.91
2023-03-31T12:54:58.857Z,18.41
2023-03-31T13:00:32.052Z,18.54
2023-03-31T13:05:51.726Z,18.36
2023-03-31T13:11:02.478Z,18.33
2023-03-31T13:16:05.261Z,18.32
2023-03-31T13:21:08.000Z,18.17
2023-03-31T13:26:08.500Z,18.22
2023-03-31T13:31:12.254Z,18.21
2023-03-31T13:36:55.038Z,17.98
2023-03-31T13:42:16.626Z,17.61
2023-03-31T13:48:04.880Z,17.33
2023-03-31T13:53:21.793Z,17.08
2023-03-31T13:58:46.165Z,16.82
2023-03-31T14:04:05.073Z,16.67
2023-03-31T14:09:11.167Z,16.61
2023-03-31T14:14:16.187Z,16.54
2023-03-31T14:19:57.889Z,16.48
2023-03-31T14:25:10.717Z,16.45
2023-03-31T14:30:23.956Z,16.72
2023-03-31T14:35:39.018Z,17.29
2023-03-31T14:40:46.878Z,17.41
2023-03-31T14:45:49.365Z,17.36
2023-03-31T14:50:49.998Z,17.39
2023-03-31T14:55:58.551Z,17.62
2023-03-31T15:01:00.402Z,17.97
2023-03-31T15:06:04.391Z,18.00
2023-03-31T15:11:12.842Z,17.88
2023-03-31T15:16:36.592Z,17.90
2023-03-31T15:21:42.053Z,17.98
2023-03-31T15:26:46.833Z,18.00
2023-03-31T15:31:47.055Z,18.03
2023-03-31T15:36:47.067Z,18.00
2023-03-31T15:41:48.675Z,17.82
2023-03-31T15:47:02.175Z,17.65
2023-03-31T15:52:02.428Z,17.39
2023-03-31T15:57:05.651Z,16.79
2023-03-31T16:02:06.600Z,16.05
2023-03-31T16:07:10.935Z,15.33
2023-03-31T16:12:20.410Z,14.80
2023-03-31T16:17:33.150Z,14.48
2023-03-31T16:22:41.357Z,14.19
2023-03-31T16:27:48.487Z,13.94
2023-03-31T16:33:07.171Z,13.76
2023-03-31T16:38:07.349Z,13.63
2023-03-31T16:43:27.513Z,13.50
2023-03-31T16:48:30.455Z,13.36
2023-03-31T16:53:33.925Z,13.22
2023-03-31T16:58:34.266Z,13.05
2023-03-31T17:03:33.656Z,12.88
2023-03-31T17:08:33.752Z,12.71
2023-03-31T17:13:34.329Z,12.56
2023-03-31T17:18:33.463Z,12.42
2023-03-31T17:23:33.324Z,12.30
2023-03-31T17:28:33.835Z,12.23
2023-03-31T17:33:33.076Z,12.17
2023-03-31T17:38:35.166Z,12.13
2023-03-31T17:43:35.663Z,12.10
2023-03-31T17:48:36.933Z,12.09
2023-03-31T17:53:37.327Z,12.08
2023-03-31T17:58:37.158Z,12.02
2023-03-31T18:03:38.469Z,11.95
2023-03-31T18:08:37.895Z,11.87
2023-03-31T18:13:39.263Z,11.76
2023-03-31T18:18:40.041Z,11.67
2023-03-31T18:23:41.362Z,11.60
2023-03-31T18:28:41.860Z,11.53
2023-03-31T18:33:42.033Z,11.46
2023-03-31T18:38:41.422Z,11.38
2023-03-31T18:43:40.629Z,11.34
2023-03-31T18:48:42.291Z,11.31
2023-03-31T18:53:41.711Z,11.29
2023-03-31T18:58:41.198Z,11.25
2023-03-31T19:03:40.771Z,11.21
2023-03-31T19:08:41.645Z,11.21
2023-03-31T19:13:42.324Z,11.18
2023-03-31T19:18:43.820Z,11.17
2023-03-31T19:23:44.047Z,11.17
2023-03-31T19:28:43.775Z,11.14
2023-03-31T19:33:43.096Z,11.15
2023-03-31T19:38:42.285Z,11.14
2023-03-31T19:43:42.690Z,11.13
2023-03-31T19:48:41.878Z,11.10
2023-03-31T19:53:42.480Z,11.06
2023-03-31T19:58:42.235Z,11.03
2023-03-31T20:03:42.106Z,11.01
2023-03-31T20:08:42.989Z,11.00
2023-03-31T20:13:44.974Z,11.00
2023-03-31T20:18:48.156Z,11.00
2023-03-31T20:23:48.580Z,11.00
2023-03-31T20:28:49.189Z,10.98
2023-03-31T20:33:49.269Z,10.96
2023-03-31T20:38:52.447Z,10.94
2023-03-31T20:43:52.469Z,10.92
2023-03-31T20:48:55.232Z,10.91
2023-03-31T20:53:57.742Z,10.90
2023-03-31T20:58:59.212Z,10.89
2023-03-31T21:04:02.184Z,10.87
2023-03-31T21:09:02.071Z,10.87
2023-03-31T21:14:01.738Z,10.84
2023-03-31T21:19:01.580Z,10.81
2023-03-31T21:24:01.266Z,10.77
2023-03-31T21:29:00.922Z,10.71
2023-03-31T21:34:02.544Z,10.66
2023-03-31T21:39:02.192Z,10.60
2023-03-31T21:44:03.422Z,10.55
2023-03-31T21:49:02.684Z,10.51
2023-03-31T21:54:01.635Z,10.47
2023-03-31T21:59:00.339Z,10.44
2023-03-31T22:04:01.057Z,10.39
2023-03-31T22:09:00.253Z,10.35
2023-03-31T22:14:01.388Z,10.31
2023-03-31T22:19:00.557Z,10.29
2023-03-31T22:24:14.944Z,10.27
2023-03-31T22:29:18.866Z,10.24
2023-03-31T22:34:19.616Z,10.22
2023-03-31T22:39:20.314Z,10.18
2023-03-31T22:44:20.269Z,10.15
2023-03-31T22:49:21.300Z,10.12
2023-03-31T22:54:21.687Z,10.10
2023-03-31T22:59:21.099Z,10.09
2023-03-31T23:04:20.601Z,10.09
2023-03-31T23:09:20.270Z,10.11
2023-03-31T23:14:18.864Z,10.11
2023-03-31T23:19:19.608Z,10.11
2023-03-31T23:24:21.516Z,10.12
2023-03-31T23:29:21.032Z,10.13
2023-03-31T23:34:20.349Z,10.15
2023-03-31T23:39:19.101Z,10.17
2023-03-31T23:44:18.357Z,10.17
2023-03-31T23:49:17.799Z,10.18
2023-03-31T23:54:17.202Z,10.21
2023-03-31T23:59:17.566Z,10.23
